Time;durP1;ratioP1;P1;durP2;ratioP2;P2;SDS_P1;SDS_P2;PMS_P1;PMS_P2;Temp;Humidity;BMP_temperature;BMP_pressure;BME280_temperature;BME280_humidity;BME280_pressure;Samples;Min_cycle;Max_cycle;Signal;HPM_P1;HPM_P2
2021/12/01 00:00:08;;;;;;;91.20;66.30;;;;;;;8.03;100.00;99975.09;1039709;28;20448;-72
2021/12/01 00:00:41;;;;;;;97.15;68.35;;;;;;;8.05;100.00;99973.03;1038668;28;21016;-73
2021/12/01 00:01:12;;;;;;;89.07;66.57;;;;;;;8.05;100.00;99973.03;1038976;28;20842;-72
2021/12/01 00:01:44;;;;;;;92.47;65.07;;;;;;;8.05;100.00;99967.72;1038627;28;20455;-72
2021/12/01 00:02:15;;;;;;;87.03;63.60;;;;;;;8.03;100.00;99970.59;1038689;28;20464;-72
2021/12/01 00:02:54;;;;;;;91.55;66.00;;;;;;;8.05;100.00;99965.06;1038801;28;20475;-73
2021/12/01 00:03:26;;;;;;;88.07;65.57;;;;;;;8.04;100.00;99966.09;1035761;28;20460;-74
2021/12/01 00:03:57;;;;;;;94.72;64.97;;;;;;;8.07;100.00;99970.97;1035040;28;20815;-75
2021/12/01 00:04:29;;;;;;;94.53;65.78;;;;;;;8.04;100.00;99966.09;1036097;28;20452;-75
2021/12/01 00:05:00;;;;;;;89.93;65.80;;;;;;;8.05;100.00;99957.13;1038980;28;20830;-75
2021/12/01 00:05:33;;;;;;;82.78;61.53;;;;;;;8.06;100.00;99961.38;1039347;28;20459;-76
2021/12/01 00:06:05;;;;;;;87.68;64.57;;;;;;;8.05;100.00;99957.94;1039306;28;20472;-75
2021/12/01 00:06:37;;;;;;;87.05;65.70;;;;;;;8.06;100.00;99964.03;1039381;28;20459;-72
2021/12/01 00:07:09;;;;;;;88.45;63.30;;;;;;;8.06;100.00;99954.25;1035884;28;20523;-75
2021/12/01 00:07:43;;;;;;;86.28;67.53;;;;;;;8.05;100.00;99960.59;1035543;28;20473;-75
2021/12/01 00:08:15;;;;;;;90.07;66.03;;;;;;;8.07;100.00;99955.06;1035043;28;20831;-74
2021/12/01 00:08:47;;;;;;;90.78;65.38;;;;;;;8.05;100.00;99957.13;1035861;28;21084;-75
2021/12/01 00:09:18;;;;;;;91.85;66.38;;;;;;;8.05;100.00;99957.94;1038899;28;20448;-75
2021/12/01 00:09:51;;;;;;;87.63;62.95;;;;;;;8.07;100.00;99950.56;1038839;28;20456;-75
2021/12/01 00:10:25;;;;;;;86.32;62.63;;;;;;;8.07;100.00;99939.13;1036625;28;20437;-74
2021/12/01 00:10:56;;;;;;;83.75;61.60;;;;;;;8.10;100.00;99941.34;1038901;28;20470;-75
2021/12/01 00:11:28;;;;;;;88.32;65.53;;;;;;;8.07;100.00;99944.44;1039289;28;20471;-74
2021/12/01 00:11:59;;;;;;;80.70;63.80;;;;;;;8.12;100.00;99949.88;1038817;28;20479;-74
2021/12/01 00:12:31;;;;;;;85.28;63.63;;;;;;;8.10;100.00;99938.69;1034705;28;20459;-75
2021/12/01 00:13:08;;;;;;;84.88;66.65;;;;;;;8.05;100.00;99947.31;1030810;28;20842;-75
2021/12/01 00:13:40;;;;;;;77.00;59.10;;;;;;;8.11;100.00;99937.66;1032290;28;20449;-75
2021/12/01 00:14:11;;;;;;;85.20;64.18;;;;;;;8.11;100.00;99937.66;1029060;28;20434;-74
2021/12/01 00:14:43;;;;;;;93.65;65.47;;;;;;;8.13;100.00;99938.25;1031778;28;20820;-74
2021/12/01 00:15:15;;;;;;;82.95;64.05;;;;;;;8.12;100.00;99931.31;1034988;28;20836;-75
2021/12/01 00:15:47;;;;;;;91.43;66.65;;;;;;;8.10;100.00;99933.38;1035457;28;20496;-75
2021/12/01 00:16:18;;;;;;;75.10;62.72;;;;;;;8.13;100.00;99932.13;1038878;28;20447;-74
2021/12/01 00:16:50;;;;;;;86.10;63.95;;;;;;;8.09;100.00;99923.81;1039422;28;20993;-74
2021/12/01 00:17:22;;;;;;;87.85;66.10;;;;;;;8.09;100.00;99926.47;1039191;28;20428;-75
2021/12/01 00:17:53;;;;;;;89.13;63.33;;;;;;;8.11;100.00;99924.41;1039103;28;20981;-74
2021/12/01 00:18:25;;;;;;;77.90;60.05;;;;;;;8.14;100.00;99925.78;1039400;28;20456;-75
2021/12/01 00:18:56;;;;;;;91.32;63.00;;;;;;;8.11;100.00;99927.06;1040567;28;20464;-72
2021/12/01 00:19:29;;;;;;;76.55;57.88;;;;;;;8.15;100.00;99925.56;1044055;28;20860;-73
2021/12/01 00:20:04;;;;;;;75.80;65.32;;;;;;;8.16;100.00;99924.53;1039438;28;20857;-73
2021/12/01 00:20:35;;;;;;;90.88;64.38;;;;;;;8.14;100.00;99918.66;1035203;28;20425;-72
2021/12/01 00:21:07;;;;;;;85.43;63.00;;;;;;;8.13;100.00;99927.63;1034536;28;20464;-75
2021/12/01 00:21:38;;;;;;;87.60;61.50;;;;;;;8.15;100.00;99914.97;1036217;28;20847;-75
2021/12/01 00:22:10;;;;;;;70.22;57.42;;;;;;;8.18;100.00;99913.69;1038146;28;20447;-74
2021/12/01 00:22:42;;;;;;;76.30;63.13;;;;;;;8.16;100.00;99911.28;1039053;28;20455;-75
2021/12/01 00:23:14;;;;;;;74.07;58.55;;;;;;;8.20;100.00;99908.97;1039414;28;20480;-76
2021/12/01 00:23:46;;;;;;;73.00;60.03;;;;;;;8.18;100.00;99911.06;1038887;28;20461;-75
2021/12/01 00:24:17;;;;;;;71.70;59.72;;;;;;;8.18;100.00;99909.19;1034382;28;20543;-75
2021/12/01 00:24:49;;;;;;;84.80;62.28;;;;;;;8.17;100.00;99904.94;1035202;28;20829;-75
2021/12/01 00:25:22;;;;;;;69.38;60.33;;;;;;;8.17;100.00;99910.25;1034528;28;20543;-75
2021/12/01 00:25:54;;;;;;;75.43;60.00;;;;;;;8.19;100.00;99910.81;1038147;28;20468;-75
2021/12/01 00:26:26;;;;;;;74.32;59.10;;;;;;;8.16;100.00;99905.16;1039258;28;20443;-74
2021/12/01 00:26:57;;;;;;;76.18;59.50;;;;;;;8.17;100.00;99902.28;1036704;28;20455;-74
2021/12/01 00:27:29;;;;;;;80.13;59.65;;;;;;;8.19;100.00;99905.53;1038821;28;20440;-75
2021/12/01 00:28:00;;;;;;;84.88;58.22;;;;;;;8.18;100.00;99898.59;1038761;28;20456;-75
2021/12/01 00:28:32;;;;;;;66.88;56.13;;;;;;;8.18;100.00;99903.09;1038836;28;20885;-74
2021/12/01 00:29:04;;;;;;;72.00;56.83;;;;;;;8.17;100.00;99899.63;1038522;28;21025;-75
2021/12/01 00:29:35;;;;;;;67.35;54.63;;;;;;;8.17;100.00;99902.28;1035044;28;20443;-75
2021/12/01 00:30:07;;;;;;;63.35;53.75;;;;;;;8.20;100.00;99891.22;1035199;28;20452;-75
2021/12/01 00:30:40;;;;;;;61.80;52.42;;;;;;;8.18;100.00;99890.63;1039475;28;20798;-74
2021/12/01 00:31:12;;;;;;;64.97;53.05;;;;;;;8.20;100.00;99891.22;1039836;28;20455;-72
2021/12/01 00:31:45;;;;;;;64.53;53.92;;;;;;;8.20;100.00;99891.22;1043199;28;20970;-72
2021/12/01 00:32:17;;;;;;;62.33;53.97;;;;;;;8.18;100.00;99887.97;1042754;28;20467;-72
2021/12/01 00:32:52;;;;;;;68.78;51.90;;;;;;;8.19;100.00;99886.13;1035108;28;20460;-75
2021/12/01 00:33:23;;;;;;;61.08;50.25;;;;;;;8.22;100.00;99877.75;1035964;28;20950;-75
2021/12/01 00:33:56;;;;;;;63.17;51.05;;;;;;;8.22;100.00;99883.88;1035437;28;20464;-75
2021/12/01 00:34:27;;;;;;;61.58;52.28;;;;;;;8.22;100.00;99878.56;1035398;28;20459;-75
2021/12/01 00:35:01;;;;;;;60.55;47.88;;;;;;;8.23;100.00;99866.94;1035764;28;20455;-75
2021/12/01 00:35:32;;;;;;;58.97;48.97;;;;;;;8.22;100.00;99873.25;1036366;28;20472;-75
2021/12/01 00:36:04;;;;;;;66.75;49.28;;;;;;;8.22;100.00;99872.47;1039613;28;20463;-75
2021/12/01 00:36:35;;;;;;;57.55;47.95;;;;;;;8.22;100.00;99867.16;1040148;28;20436;-75
2021/12/01 00:37:07;;;;;;;63.50;48.20;;;;;;;8.22;100.00;99875.09;1039443;28;20471;-75
2021/12/01 00:37:39;;;;;;;53.70;47.03;;;;;;;8.22;100.00;99875.91;1039986;28;20459;-75
2021/12/01 00:38:11;;;;;;;59.40;46.35;;;;;;;8.22;100.00;99861.84;1039967;28;20455;-75
2021/12/01 00:38:44;;;;;;;49.90;44.70;;;;;;;8.22;100.00;99872.47;1039523;28;20472;-74
2021/12/01 00:39:15;;;;;;;52.85;46.60;;;;;;;8.22;100.00;99869.81;1031335;28;20461;-75
2021/12/01 00:39:47;;;;;;;53.28;45.20;;;;;;;8.21;100.00;99866.31;1028401;28;20536;-75
2021/12/01 00:40:19;;;;;;;55.35;44.42;;;;;;;8.23;100.00;99852.84;1031263;28;20465;-74
2021/12/01 00:40:51;;;;;;;52.80;44.20;;;;;;;8.22;100.00;99857.34;1032688;28;20457;-75
2021/12/01 00:41:23;;;;;;;51.22;42.45;;;;;;;8.23;100.00;99852.84;1039934;28;20543;-75
2021/12/01 00:42:00;;;;;;;49.47;42.50;;;;;;;8.21;100.00;99855.69;1040032;28;20458;-73
2021/12/01 00:42:34;;;;;;;50.17;41.17;;;;;;;8.21;100.00;99857.53;1040316;28;20468;-72
2021/12/01 00:43:05;;;;;;;48.08;40.47;;;;;;;8.22;100.00;99852.03;1039842;28;20451;-75
2021/12/01 00:43:39;;;;;;;44.45;39.67;;;;;;;8.23;100.00;99853.66;1040231;28;20479;-74
2021/12/01 00:44:11;;;;;;;44.13;37.00;;;;;;;8.26;100.00;99853.22;1039917;28;20439;-75
2021/12/01 00:44:47;;;;;;;42.50;37.38;;;;;;;8.27;100.00;99852.19;1038652;28;20480;-75
2021/12/01 00:45:21;;;;;;;42.60;38.03;;;;;;;8.25;100.00;99843.63;1042500;28;20451;-74
2021/12/01 00:45:58;;;;;;;41.50;37.15;;;;;;;8.24;100.00;99842.00;1041472;28;20443;-74
2021/12/01 00:46:40;;;;;;;47.80;37.72;;;;;;;8.24;100.00;99849.97;1040995;28;20432;-73
2021/12/01 00:47:13;;;;;;;38.50;32.40;;;;;;;8.22;100.00;99846.75;1043503;28;20460;-74
2021/12/01 00:47:53;;;;;;;37.17;29.25;;;;;;;8.24;100.00;99844.66;1043032;28;20481;-75
2021/12/01 00:48:25;;;;;;;36.78;27.00;;;;;;;8.24;100.00;99836.72;1043414;28;20455;-74
2021/12/01 00:48:57;;;;;;;33.72;27.10;;;;;;;8.26;100.00;99831.97;1039380;28;20825;-75
2021/12/01 00:49:33;;;;;;;31.40;27.88;;;;;;;8.26;100.00;99836.47;1039641;28;20463;-75
2021/12/01 00:50:05;;;;;;;30.52;24.15;;;;;;;8.29;100.00;99836.84;1039679;28;20471;-75
2021/12/01 00:50:37;;;;;;;31.05;27.40;;;;;;;8.26;100.00;99837.28;1039978;28;20456;-75
2021/12/01 00:51:09;;;;;;;30.70;26.70;;;;;;;8.26;100.00;99831.19;1039558;28;21042;-75
2021/12/01 00:51:40;;;;;;;31.85;26.60;;;;;;;8.27;100.00;99823.00;1039587;28;20846;-75
2021/12/01 00:52:12;;;;;;;32.50;27.98;;;;;;;8.26;100.00;99831.19;1040180;28;20467;-76
2021/12/01 00:52:43;;;;;;;35.83;25.45;;;;;;;8.26;100.00;99836.47;1039743;28;20458;-75
2021/12/01 00:53:15;;;;;;;29.73;25.45;;;;;;;8.30;100.00;99835.81;1039207;28;20694;-75
2021/12/01 00:53:47;;;;;;;29.45;25.63;;;;;;;8.29;100.00;99828.06;1039725;28;20483;-75
2021/12/01 00:54:19;;;;;;;28.30;24.02;;;;;;;8.32;100.00;99831.06;1039673;28;20447;-75
2021/12/01 00:54:50;;;;;;;29.77;22.13;;;;;;;8.34;100.00;99822.91;1035590;28;20496;-75
2021/12/01 00:55:22;;;;;;;25.00;21.23;;;;;;;8.36;100.00;99821.66;1039738;28;20432;-75
2021/12/01 00:55:54;;;;;;;27.20;24.30;;;;;;;8.30;100.00;99817.22;1035366;28;20536;-75
2021/12/01 00:56:25;;;;;;;24.83;21.92;;;;;;;8.33;100.00;99819.47;1035439;28;20444;-75
2021/12/01 00:56:57;;;;;;;23.35;20.85;;;;;;;8.32;100.00;99817.81;1035499;28;20449;-75
2021/12/01 00:57:28;;;;;;;26.65;22.38;;;;;;;8.33;100.00;99816.81;1035784;28;20803;-74
2021/12/01 00:58:00;;;;;;;29.77;22.85;;;;;;;8.32;100.00;99812.50;1039416;28;20479;-75
2021/12/01 00:58:31;;;;;;;26.15;23.10;;;;;;;8.35;100.00;99809.44;1040096;28;20440;-75
2021/12/01 00:59:03;;;;;;;25.42;21.67;;;;;;;8.36;100.00;99816.34;1039975;28;20447;-75
2021/12/01 00:59:34;;;;;;;23.80;21.27;;;;;;;8.35;100.00;99808.63;1039884;28;21499;-74
2021/12/01 01:00:08;;;;;;;22.63;20.27;;;;;;;8.33;100.00;99811.50;1040215;28;20448;-74
2021/12/01 01:00:40;;;;;;;25.55;21.58;;;;;;;8.30;100.00;99811.91;1039453;28;20475;-75
2021/12/01 01:01:12;;;;;;;22.88;20.42;;;;;;;8.33;100.00;99808.00;1039345;28;21039;-75
2021/12/01 01:01:45;;;;;;;22.80;20.50;;;;;;;8.34;100.00;99814.97;1039981;28;20454;-75
2021/12/01 01:02:17;;;;;;;19.67;17.65;;;;;;;8.36;100.00;99795.13;1039586;28;20478;-75
2021/12/01 01:02:49;;;;;;;23.38;17.40;;;;;;;8.35;100.00;99798.81;1040241;28;20471;-74
2021/12/01 01:03:21;;;;;;;21.30;19.00;;;;;;;8.33;100.00;99808.84;1044257;28;20809;-74
2021/12/01 01:03:54;;;;;;;20.80;18.60;;;;;;;8.35;100.00;99800.66;1043652;28;20506;-74
2021/12/01 01:04:26;;;;;;;20.33;18.10;;;;;;;8.38;100.00;99802.03;1043272;28;20467;-75
2021/12/01 01:04:57;;;;;;;21.55;19.27;;;;;;;8.36;100.00;99799.63;1040350;28;20489;-75
2021/12/01 01:05:29;;;;;;;20.60;18.45;;;;;;;8.35;100.00;99798.00;1040289;28;20803;-72
2021/12/01 01:06:01;;;;;;;19.50;17.42;;;;;;;8.38;100.00;99796.75;1040351;28;21183;-72
2021/12/01 01:06:32;;;;;;;21.33;17.35;;;;;;;8.34;100.00;99791.88;1039874;28;20455;-73
2021/12/01 01:07:04;;;;;;;21.17;18.30;;;;;;;8.34;100.00;99791.88;1039322;28;20463;-72
2021/12/01 01:07:36;;;;;;;16.50;14.25;;;;;;;8.38;100.00;99797.53;1039667;28;20783;-72
2021/12/01 01:08:07;;;;;;;19.30;16.60;;;;;;;8.34;100.00;99797.19;1037485;28;20934;-73
2021/12/01 01:08:39;;;;;;;18.55;16.67;;;;;;;8.36;100.00;99789.00;1039391;28;20838;-72
2021/12/01 01:09:11;;;;;;;18.90;16.95;;;;;;;8.35;100.00;99790.84;1039665;28;20468;-72
2021/12/01 01:09:43;;;;;;;19.20;15.40;;;;;;;8.33;100.00;99792.94;1035680;28;20535;-72
2021/12/01 01:16:36;;;;;;;15.05;13.30;;;;;;;8.35;100.00;99772.28;1038895;28;20139;-72
2021/12/01 01:17:09;;;;;;;15.18;13.70;;;;;;;8.35;100.00;99772.28;1039938;28;20056;-72
2021/12/01 01:17:41;;;;;;;18.33;15.02;;;;;;;8.34;100.00;99770.66;1039616;28;20440;-72
2021/12/01 01:18:13;;;;;;;14.80;13.30;;;;;;;8.36;100.00;99779.19;1038862;28;21122;-72
2021/12/01 01:18:47;;;;;;;15.60;13.93;;;;;;;8.39;100.00;99755.91;1039467;28;20475;-73
2021/12/01 01:19:19;;;;;;;15.27;13.68;;;;;;;8.40;100.00;99765.47;1038449;28;20515;-72
2021/12/01 01:19:51;;;;;;;15.55;14.00;;;;;;;8.40;100.00;99765.47;1035510;28;20473;-75
2021/12/01 01:20:22;;;;;;;15.10;13.68;;;;;;;8.38;100.00;99764.91;1035345;28;20475;-75
2021/12/01 01:20:54;;;;;;;15.50;14.00;;;;;;;8.37;100.00;99766.75;1036246;28;20472;-74
2021/12/01 01:21:29;;;;;;;15.80;14.20;;;;;;;8.38;100.00;99770.19;1039770;28;20826;-75
2021/12/01 01:22:01;;;;;;;14.65;13.15;;;;;;;8.38;100.00;99757.75;1042741;28;20968;-75
2021/12/01 01:22:33;;;;;;;14.75;13.25;;;;;;;8.37;100.00;99769.41;1039862;28;20979;-74
2021/12/01 01:23:04;;;;;;;15.98;12.68;;;;;;;8.37;100.00;99761.44;1037122;28;20448;-75
2021/12/01 01:23:37;;;;;;;16.40;14.80;;;;;;;8.38;100.00;99759.59;1039325;28;20444;-76
2021/12/01 01:24:09;;;;;;;14.63;13.25;;;;;;;8.36;100.00;99757.97;1036290;28;20492;-75
2021/12/01 01:24:40;;;;;;;15.65;14.13;;;;;;;8.36;100.00;99751.84;1039706;28;20444;-74
2021/12/01 01:25:12;;;;;;;14.38;12.95;;;;;;;8.38;100.00;99757.75;1039380;28;20448;-75
2021/12/01 01:25:43;;;;;;;13.85;12.52;;;;;;;8.38;100.00;99759.59;1039654;28;20487;-74
2021/12/01 01:26:17;;;;;;;13.55;12.25;;;;;;;8.41;100.00;99759.94;1037795;28;20453;-75
2021/12/01 01:26:49;;;;;;;13.27;11.98;;;;;;;8.41;100.00;99748.53;1039959;28;20444;-72
2021/12/01 01:27:21;;;;;;;13.05;11.85;;;;;;;8.43;100.00;99759.72;1039241;28;20463;-72
2021/12/01 01:27:52;;;;;;;14.05;12.52;;;;;;;8.38;100.00;99749.78;1037598;28;20441;-75
2021/12/01 01:28:24;;;;;;;14.18;12.57;;;;;;;8.37;100.00;99742.88;1036329;28;20843;-75
2021/12/01 01:28:56;;;;;;;13.95;12.55;;;;;;;8.37;100.00;99745.50;1039535;28;20471;-75
2021/12/01 01:29:28;;;;;;;17.23;12.90;;;;;;;8.36;100.00;99739.41;1032664;28;21025;-75
2021/12/01 01:30:00;;;;;;;14.73;13.25;;;;;;;8.36;100.00;99742.06;1035645;28;20447;-75
2021/12/01 01:30:32;;;;;;;14.48;12.68;;;;;;;8.38;100.00;99743.66;1039194;28;20868;-74
2021/12/01 01:31:04;;;;;;;13.98;12.55;;;;;;;8.37;100.00;99737.56;1040023;28;20439;-75
2021/12/01 01:31:36;;;;;;;12.13;11.00;;;;;;;8.39;100.00;99734.66;1043214;28;20909;-75
2021/12/01 01:32:08;;;;;;;12.57;11.18;;;;;;;8.36;100.00;99736.75;1039391;28;20447;-75
2021/12/01 01:32:39;;;;;;;13.75;11.77;;;;;;;8.35;100.00;99735.13;1035363;28;20461;-75
2021/12/01 01:33:11;;;;;;;11.82;10.65;;;;;;;8.38;100.00;99727.75;1035153;28;20449;-75
2021/12/01 01:33:43;;;;;;;11.57;10.57;;;;;;;8.36;100.00;99734.09;1035830;28;20548;-74
2021/12/01 01:34:15;;;;;;;11.90;10.68;;;;;;;8.36;100.00;99731.44;1039467;28;20479;-75
2021/12/01 01:34:46;;;;;;;11.23;10.13;;;;;;;8.38;100.00;99725.09;1038958;28;20479;-75
2021/12/01 01:35:18;;;;;;;12.02;10.77;;;;;;;8.37;100.00;99724.28;1035306;28;20953;-75
2021/12/01 01:35:52;;;;;;;11.80;10.68;;;;;;;8.36;100.00;99723.47;1034789;28;20566;-75
2021/12/01 01:36:24;;;;;;;10.95;9.85;;;;;;;8.36;100.00;99726.13;1031803;28;20472;-74
2021/12/01 01:36:55;;;;;;;12.55;11.25;;;;;;;8.36;100.00;99718.19;1036151;28;20460;-75
2021/12/01 01:37:27;;;;;;;11.02;9.82;;;;;;;8.35;100.00;99727.16;1035229;28;20440;-75
2021/12/01 01:37:58;;;;;;;10.52;9.63;;;;;;;8.35;100.00;99719.22;1035676;28;20468;-74
2021/12/01 01:38:32;;;;;;;9.88;8.82;;;;;;;8.40;100.00;99723.03;1035444;28;20455;-74
2021/12/01 01:39:04;;;;;;;11.25;10.18;;;;;;;8.39;100.00;99729.38;1031670;28;20453;-75
2021/12/01 01:39:36;;;;;;;10.30;9.30;;;;;;;8.43;100.00;99717.25;1035142;28;20990;-74
2021/12/01 01:40:08;;;;;;;10.75;9.70;;;;;;;8.41;100.00;99719.34;1035959;28;20432;-75
2021/12/01 01:40:40;;;;;;;10.50;9.52;;;;;;;8.41;100.00;99721.97;1039304;28;21005;-75
2021/12/01 01:41:12;;;;;;;11.30;10.10;;;;;;;8.40;100.00;99717.72;1038975;28;20436;-75
2021/12/01 01:41:44;;;;;;;10.65;9.55;;;;;;;8.41;100.00;99714.03;1034984;28;20451;-75
2021/12/01 01:42:15;;;;;;;10.45;9.35;;;;;;;8.40;100.00;99715.06;1035332;28;20429;-74
2021/12/01 01:42:48;;;;;;;9.52;8.63;;;;;;;8.39;100.00;99702.84;1034802;28;20484;-75
2021/12/01 01:43:20;;;;;;;8.30;7.57;;;;;;;8.39;100.00;99708.13;1035654;28;20440;-76
2021/12/01 01:43:51;;;;;;;9.07;8.02;;;;;;;8.38;100.00;99709.19;1038477;28;20475;-74
2021/12/01 01:44:23;;;;;;;9.43;8.45;;;;;;;8.40;100.00;99707.91;1038364;28;20530;-75
2021/12/01 01:44:54;;;;;;;10.25;8.70;;;;;;;8.45;100.00;99707.22;1039287;28;20436;-74
2021/12/01 01:45:27;;;;;;;8.48;7.68;;;;;;;8.43;100.00;99710.09;1038585;28;20448;-74
2021/12/01 01:45:59;;;;;;;11.68;7.50;;;;;;;8.44;100.00;99705.59;1035307;28;20464;-75
2021/12/01 01:46:35;;;;;;;12.00;8.65;;;;;;;8.42;100.00;99702.38;1035455;28;20445;-75
2021/12/01 01:47:07;;;;;;;9.45;8.63;;;;;;;8.42;100.00;99699.72;1036781;28;20482;-74
2021/12/01 01:48:06;;;;;;;9.45;8.55;;;;;;;8.46;100.00;99692.91;1040437;28;20822;-75
2021/12/01 01:49:34;;;;;;;7.72;7.03;;;;;;;8.44;100.00;99700.28;1043835;28;20808;-75
2021/12/01 01:51:07;;;;;;;9.40;8.50;;;;;;;8.45;100.00;99692.09;1034595;28;20469;-75
2021/12/01 01:51:40;;;;;;;8.70;7.80;;;;;;;8.45;100.00;99691.28;1043634;28;20056;-75
2021/12/01 01:52:11;;;;;;;8.93;8.05;;;;;;;8.44;100.00;99679.06;1043540;28;20439;-75
2021/12/01 01:52:43;;;;;;;10.50;8.20;;;;;;;8.42;100.00;99689.91;1043146;28;20821;-74
2021/12/01 01:53:20;;;;;;;8.30;7.57;;;;;;;8.41;100.00;99682.19;1043440;28;20431;-75
2021/12/01 01:53:54;;;;;;;8.45;7.65;;;;;;;8.45;100.00;99678.84;1037878;28;20459;-75
2021/12/01 01:54:26;;;;;;;7.70;6.97;;;;;;;8.43;100.00;99672.13;1035396;28;20436;-75
2021/12/01 01:54:57;;;;;;;8.23;7.45;;;;;;;8.44;100.00;99668.44;1037666;28;21013;-75
2021/12/01 01:55:29;;;;;;;9.57;8.65;;;;;;;8.43;100.00;99677.44;1042418;28;20912;-75
2021/12/01 01:56:03;;;;;;;8.88;7.40;;;;;;;8.45;100.00;99670.06;1044158;28;20995;-75
2021/12/01 01:56:35;;;;;;;9.88;8.88;;;;;;;8.44;100.00;99676.41;1039399;28;20455;-74
2021/12/01 01:57:06;;;;;;;11.13;9.05;;;;;;;8.44;100.00;99679.06;1038817;28;20475;-74
2021/12/01 01:57:38;;;;;;;9.35;8.55;;;;;;;8.43;100.00;99666.84;1031359;28;21187;-75
2021/12/01 01:58:11;;;;;;;10.07;9.18;;;;;;;8.43;100.00;99672.13;1026732;28;20477;-75
2021/12/01 01:58:42;;;;;;;9.63;8.73;;;;;;;8.42;100.00;99666.03;1026979;28;20845;-74
2021/12/01 01:59:14;;;;;;;9.80;8.85;;;;;;;8.43;100.00;99680.09;1027685;28;20462;-74
2021/12/01 01:59:45;;;;;;;9.52;8.73;;;;;;;8.43;100.00;99661.53;1032771;28;20803;-74
2021/12/01 02:00:17;;;;;;;9.38;8.48;;;;;;;8.45;100.00;99664.75;1038859;28;20464;-75
2021/12/01 02:01:06;;;;;;;10.10;9.02;;;;;;;8.44;100.00;99652.53;1039976;28;20443;-75
2021/12/01 02:01:55;;;;;;;10.75;9.25;;;;;;;8.44;100.00;99660.50;1040051;28;20496;-74
2021/12/01 02:02:27;;;;;;;12.15;8.88;;;;;;;8.42;100.00;99660.72;1039354;28;20795;-75
2021/12/01 02:02:59;;;;;;;9.93;8.73;;;;;;;8.40;100.00;99667.31;1039766;28;20447;-75
2021/12/01 02:03:31;;;;;;;9.15;8.32;;;;;;;8.42;100.00;99663.38;1038577;28;20459;-74
2021/12/01 02:04:02;;;;;;;8.23;7.53;;;;;;;8.46;100.00;99650.44;1039412;28;20439;-75
2021/12/01 02:04:34;;;;;;;11.52;9.13;;;;;;;8.43;100.00;99646.41;1039261;28;20463;-75
2021/12/01 02:05:06;;;;;;;9.82;8.73;;;;;;;8.44;100.00;99647.22;1034914;28;20465;-75
2021/12/01 02:05:38;;;;;;;9.18;8.32;;;;;;;8.43;100.00;99656.22;1034958;28;21014;-75
2021/12/01 02:06:11;;;;;;;10.15;9.23;;;;;;;8.47;100.00;99641.44;1028967;28;20580;-75
2021/12/01 02:06:46;;;;;;;9.68;8.70;;;;;;;8.44;100.00;99653.34;1027157;28;20462;-75
2021/12/01 02:07:18;;;;;;;10.13;9.15;;;;;;;8.44;100.00;99648.03;1027022;28;20454;-75
2021/12/01 02:07:51;;;;;;;9.63;8.73;;;;;;;8.44;100.00;99647.22;1028144;28;20442;-75
2021/12/01 02:08:34;;;;;;;11.10;9.48;;;;;;;8.45;100.00;99651.50;1033671;28;20460;-75
2021/12/01 02:09:06;;;;;;;10.75;9.15;;;;;;;8.46;100.00;99643.28;1037801;28;20429;-75
2021/12/01 02:09:37;;;;;;;10.23;9.20;;;;;;;8.47;100.00;99646.75;1039285;28;20969;-75
2021/12/01 02:10:09;;;;;;;8.82;8.02;;;;;;;8.45;100.00;99640.88;1039403;28;20470;-73
2021/12/01 02:10:42;;;;;;;10.90;8.38;;;;;;;8.45;100.00;99646.19;1039393;28;20447;-75
2021/12/01 02:11:15;;;;;;;9.68;8.88;;;;;;;8.46;100.00;99650.44;1035419;28;20823;-75
2021/12/01 02:11:47;;;;;;;10.18;9.15;;;;;;;8.47;100.00;99646.75;1035152;28;20449;-74
2021/12/01 02:12:19;;;;;;;9.10;8.30;;;;;;;8.45;100.00;99640.88;1035271;28;20461;-75
2021/12/01 02:12:50;;;;;;;9.30;8.40;;;;;;;8.44;100.00;99641.91;1035618;28;20465;-75
2021/12/01 02:13:22;;;;;;;9.50;8.45;;;;;;;8.47;100.00;99630.84;1039089;28;20451;-75
2021/12/01 02:13:54;;;;;;;10.98;8.68;;;;;;;8.45;100.00;99639.03;1039628;28;20482;-75
2021/12/01 02:14:27;;;;;;;9.05;8.15;;;;;;;8.46;100.00;99631.88;1039463;28;20448;-75
2021/12/01 02:14:59;;;;;;;8.85;7.95;;;;;;;8.46;100.00;99629.22;1039096;28;20468;-74
2021/12/01 02:15:31;;;;;;;9.90;8.18;;;;;;;8.47;100.00;99620.22;1039525;28;20460;-75
2021/12/01 02:16:03;;;;;;;9.98;9.07;;;;;;;8.45;100.00;99633.72;1038982;28;20490;-75
2021/12/01 02:16:37;;;;;;;9.13;8.32;;;;;;;8.44;100.00;99626.78;1039297;28;20455;-75
2021/12/01 02:17:09;;;;;;;9.75;8.63;;;;;;;8.43;100.00;99629.69;1039262;28;20527;-75
2021/12/01 02:17:40;;;;;;;9.48;8.63;;;;;;;8.45;100.00;99632.91;1039738;28;20467;-75
2021/12/01 02:18:12;;;;;;;8.15;7.32;;;;;;;8.45;100.00;99627.59;1038171;28;20464;-75
2021/12/01 02:18:44;;;;;;;9.25;8.35;;;;;;;8.47;100.00;99620.22;1039419;28;20475;-76
2021/12/01 02:19:15;;;;;;;6.97;6.38;;;;;;;8.46;100.00;99613.28;1035066;28;20990;-75
2021/12/01 02:19:51;;;;;;;8.50;7.65;;;;;;;8.43;100.00;99622.53;1030966;28;20445;-75
2021/12/01 02:20:23;;;;;;;8.82;8.02;;;;;;;8.43;100.00;99619.06;1031178;28;20469;-76
2021/12/01 02:21:01;;;;;;;7.75;6.95;;;;;;;8.45;100.00;99611.69;1035349;28;20803;-75
2021/12/01 02:21:34;;;;;;;8.80;7.90;;;;;;;8.44;100.00;99605.56;1037515;28;20468;-75
2021/12/01 02:22:05;;;;;;;8.35;7.10;;;;;;;8.45;100.00;99617.00;1039384;28;20471;-74
2021/12/01 02:22:37;;;;;;;9.55;7.43;;;;;;;8.46;100.00;99602.69;1039175;28;20459;-75
2021/12/01 02:23:08;;;;;;;8.15;7.35;;;;;;;8.43;100.00;99611.91;1039500;28;20471;-75
2021/12/01 02:23:46;;;;;;;7.80;7.00;;;;;;;8.43;100.00;99613.75;1039168;28;20476;-75
2021/12/01 02:24:21;;;;;;;8.48;7.40;;;;;;;8.44;100.00;99596.81;1043218;28;20454;-74
2021/12/01 02:24:53;;;;;;;9.13;7.50;;;;;;;8.43;100.00;99608.47;1043257;28;20474;-75
2021/12/01 02:25:24;;;;;;;7.40;6.68;;;;;;;8.43;100.00;99603.16;1043617;28;20460;-74
2021/12/01 02:25:56;;;;;;;8.30;7.60;;;;;;;8.41;100.00;99598.06;1042988;28;20470;-75
2021/12/01 02:26:29;;;;;;;8.10;7.35;;;;;;;8.42;100.00;99590.94;1044229;28;20703;-72
2021/12/01 02:27:01;;;;;;;8.07;7.47;;;;;;;8.43;100.00;99592.53;1044693;28;20451;-75
2021/12/01 02:27:32;;;;;;;8.55;7.10;;;;;;;8.42;100.00;99601.53;1043111;28;20467;-75
2021/12/01 02:28:07;;;;;;;7.65;6.97;;;;;;;8.41;100.00;99599.91;1043369;28;20467;-75
2021/12/01 02:28:39;;;;;;;8.90;7.00;;;;;;;8.38;100.00;99577.31;1003383;28;1062019;-75
2021/12/01 02:29:16;;;;;;;7.75;6.63;;;;;;;8.40;100.00;99593.81;1044388;28;20443;-73
2021/12/01 02:29:48;;;;;;;7.15;6.50;;;;;;;8.41;100.00;99589.31;1044067;28;20983;-75
2021/12/01 02:30:19;;;;;;;6.80;6.22;;;;;;;8.42;100.00;99585.63;1043217;28;20478;-75
2021/12/01 02:30:51;;;;;;;9.38;7.05;;;;;;;8.44;100.00;99575.56;1043737;28;20435;-75
2021/12/01 02:31:26;;;;;;;7.20;5.47;;;;;;;8.42;100.00;99590.94;1043774;28;20467;-72
2021/12/01 02:31:57;;;;;;;7.07;6.47;;;;;;;8.41;100.00;99579.50;1043593;28;20481;-72
2021/12/01 02:32:29;;;;;;;7.05;6.35;;;;;;;8.39;100.00;99580.78;1043691;28;20455;-72
2021/12/01 02:33:00;;;;;;;9.98;6.75;;;;;;;8.40;100.00;99582.38;1043603;28;20952;-71
2021/12/01 02:33:32;;;;;;;7.53;6.63;;;;;;;8.39;100.00;99575.47;1043448;28;20447;-73
2021/12/01 02:34:07;;;;;;;6.65;6.03;;;;;;;8.39;100.00;99578.13;1043905;28;20471;-73
2021/12/01 02:34:39;;;;;;;7.78;7.07;;;;;;;8.41;100.00;99584.00;1043394;28;20447;-72
2021/12/01 02:35:10;;;;;;;7.72;5.82;;;;;;;8.40;100.00;99575.25;1043411;28;20451;-72
2021/12/01 02:35:42;;;;;;;6.43;5.93;;;;;;;8.39;100.00;99575.47;1043086;28;20514;-72
2021/12/01 02:36:15;;;;;;;6.68;6.15;;;;;;;8.41;100.00;99573.38;1043462;28;20490;-72
2021/12/01 02:36:51;;;;;;;7.18;6.55;;;;;;;8.37;100.00;99573.06;1039108;28;20452;-72
2021/12/01 02:37:23;;;;;;;6.30;5.70;;;;;;;8.35;100.00;99575.94;1035514;28;20960;-72
2021/12/01 02:37:55;;;;;;;7.70;6.32;;;;;;;8.37;100.00;99578.34;1036482;28;20447;-72
2021/12/01 02:38:26;;;;;;;6.53;5.72;;;;;;;8.39;100.00;99570.16;1036271;28;20456;-72
2021/12/01 02:38:58;;;;;;;6.97;6.28;;;;;;;8.36;100.00;99561.63;1034889;28;20832;-72